Altheimer, Arkansas
Current Conditions -  °F | °C
As of 4:53 PM on Wednesday 22 Oct 2014 (Local Time) from KPBF Reporting Station
Clear Clear  
Wind Chill: 70°   Ceiling: Unl
Heat Index: 70°   Visibility: 10mi
Dew Point: 47°   Wind: 10mph
Humidity: 44%   Direction: 40°NE
Pressure: 30.15"   Gusts: NA
Location:  34.32°N, 91.85°W
Report Text: KPBF 222153Z AUTO 04009KT 10SM CLR 21/08 A3015 RMK AO2 SLP208 T02110083
Loading
Personal Weather Stations






























Interactive Weather Map New forecast layout! Learn more

10-Day Weather Forecast

Advertisements
Track Severe Weather on mobile